createdAt,value
2023-01-23T00:00:13.355Z,35.27
2023-01-23T00:02:39.798Z,33.90
2023-01-23T00:05:07.234Z,36.27
2023-01-23T00:07:33.672Z,34.70
2023-01-23T00:10:00.206Z,36.37
2023-01-23T00:12:26.697Z,35.07
2023-01-23T00:14:53.768Z,36.33
2023-01-23T00:17:20.218Z,34.57
2023-01-23T00:19:46.698Z,33.37
2023-01-23T00:22:14.555Z,33.47
2023-01-23T00:24:41.146Z,32.03
2023-01-23T00:27:07.638Z,27.30
2023-01-23T00:29:34.209Z,27.03
2023-01-23T00:32:01.245Z,27.70
2023-01-23T00:34:27.866Z,28.43
2023-01-23T00:36:54.241Z,27.90
2023-01-23T00:39:23.635Z,29.17
2023-01-23T00:41:50.245Z,28.73
2023-01-23T00:44:17.604Z,29.43
2023-01-23T00:46:44.264Z,31.27
2023-01-23T00:49:11.353Z,30.03
2023-01-23T00:51:37.845Z,31.57
2023-01-23T00:54:04.440Z,30.43
2023-01-23T00:56:30.939Z,29.83
2023-01-23T00:58:57.411Z,30.63
2023-01-23T01:01:23.921Z,30.23
2023-01-23T01:03:50.419Z,29.70
2023-01-23T01:06:17.587Z,28.03
2023-01-23T01:08:44.053Z,28.33
2023-01-23T01:11:10.463Z,28.17
2023-01-23T01:13:37.004Z,28.97
2023-01-23T01:16:04.170Z,28.40
2023-01-23T01:18:30.786Z,28.03
2023-01-23T01:20:57.732Z,29.93
2023-01-23T01:23:25.189Z,28.87
2023-01-23T01:25:51.679Z,29.03
2023-01-23T01:28:18.302Z,29.63
2023-01-23T01:30:44.779Z,29.43
2023-01-23T01:33:11.225Z,28.87
2023-01-23T01:35:39.288Z,29.70
2023-01-23T01:38:05.720Z,29.17
2023-01-23T01:40:34.823Z,30.70
2023-01-23T01:43:05.150Z,29.93
2023-01-23T01:46:09.240Z,29.87
2023-01-23T01:48:40.162Z,30.13
2023-01-23T01:51:15.169Z,31.57
2023-01-23T01:53:42.689Z,30.03
2023-01-23T01:56:12.549Z,29.70
2023-01-23T01:58:40.977Z,28.33
2023-01-23T02:01:08.435Z,28.97
2023-01-23T02:03:37.622Z,28.47
2023-01-23T02:06:05.926Z,29.97
2023-01-23T02:08:39.295Z,29.57
2023-01-23T02:11:06.740Z,29.10
2023-01-23T02:13:36.384Z,27.83
2023-01-23T02:16:05.856Z,27.97
2023-01-23T02:18:34.453Z,27.37
2023-01-23T02:21:05.655Z,28.03
2023-01-23T02:23:42.571Z,29.87
2023-01-23T02:26:15.977Z,29.80
2023-01-23T02:28:46.525Z,30.17
2023-01-23T02:31:18.206Z,30.40
2023-01-23T02:33:50.317Z,30.37
2023-01-23T02:36:19.930Z,29.10
2023-01-23T02:38:55.095Z,29.73
2023-01-23T02:41:28.329Z,27.97
2023-01-23T02:43:56.689Z,29.97
2023-01-23T02:46:24.510Z,28.10
2023-01-23T02:48:51.237Z,30.10
2023-01-23T02:51:20.184Z,30.23
2023-01-23T02:53:47.877Z,28.47
2023-01-23T02:56:15.343Z,28.20
2023-01-23T02:59:02.165Z,27.30
2023-01-23T03:01:29.209Z,28.10
2023-01-23T03:03:56.263Z,28.70
2023-01-23T03:06:23.736Z,28.93
2023-01-23T03:08:50.673Z,28.67
2023-01-23T03:11:18.773Z,27.87
2023-01-23T03:13:46.902Z,27.87
2023-01-23T03:16:13.863Z,28.63
2023-01-23T03:18:53.529Z,28.37
2023-01-23T03:21:21.246Z,29.67
2023-01-23T03:23:47.747Z,27.87
2023-01-23T03:26:14.649Z,28.43
2023-01-23T03:28:59.103Z,28.10
2023-01-23T03:31:26.295Z,28.63
2023-01-23T03:33:53.167Z,29.00
2023-01-23T03:36:20.375Z,27.87
2023-01-23T03:39:11.073Z,30.03
2023-01-23T03:41:41.163Z,29.10
2023-01-23T03:44:08.387Z,29.77
2023-01-23T03:46:35.962Z,30.60
2023-01-23T03:49:02.915Z,29.00
2023-01-23T03:51:29.451Z,29.83
2023-01-23T03:53:56.029Z,28.93
2023-01-23T03:56:22.589Z,28.90
2023-01-23T03:58:49.798Z,29.13
2023-01-23T04:01:19.117Z,29.20
2023-01-23T04:03:46.323Z,29.50
2023-01-23T04:06:12.802Z,29.17
2023-01-23T04:08:39.447Z,30.77
2023-01-23T04:11:09.929Z,28.30
2023-01-23T04:13:36.872Z,29.03
2023-01-23T04:16:04.954Z,29.50
2023-01-23T04:18:32.607Z,29.37
2023-01-23T04:21:00.096Z,30.33
2023-01-23T04:23:26.601Z,29.60
2023-01-23T04:25:53.482Z,27.40
2023-01-23T04:28:21.304Z,27.23
2023-01-23T04:30:49.984Z,27.87
2023-01-23T04:33:23.154Z,28.67
2023-01-23T04:35:51.101Z,26.90
2023-01-23T04:38:18.373Z,29.23
2023-01-23T04:40:46.607Z,27.40
2023-01-23T04:43:13.147Z,25.80
2023-01-23T04:45:47.567Z,27.30
2023-01-23T04:48:26.055Z,26.50
2023-01-23T04:50:53.350Z,27.50
2023-01-23T04:53:20.461Z,27.47
2023-01-23T04:55:52.876Z,26.47
2023-01-23T04:58:19.885Z,25.73
2023-01-23T05:00:46.610Z,25.87
2023-01-23T05:03:13.589Z,25.03
2023-01-23T05:05:44.256Z,25.30
2023-01-23T05:08:11.232Z,24.63
2023-01-23T05:10:39.106Z,25.70
2023-01-23T05:13:09.581Z,26.73
2023-01-23T05:15:36.224Z,26.37
2023-01-23T05:18:02.837Z,27.70
2023-01-23T05:20:29.416Z,26.47
2023-01-23T05:23:00.327Z,25.47
2023-01-23T05:25:34.776Z,24.97
2023-01-23T05:28:01.957Z,27.63
2023-01-23T05:30:30.439Z,24.87
2023-01-23T05:33:12.438Z,25.33
2023-01-23T05:35:39.693Z,26.10
2023-01-23T05:38:06.712Z,27.13
2023-01-23T05:40:33.466Z,26.53
2023-01-23T05:43:26.764Z,26.60
2023-01-23T05:46:16.698Z,27.90
2023-01-23T05:48:49.271Z,28.27
2023-01-23T05:51:16.442Z,26.90
2023-01-23T05:53:44.015Z,25.17
2023-01-23T05:56:11.172Z,25.50
2023-01-23T05:58:49.524Z,27.80
2023-01-23T06:01:26.797Z,27.93
2023-01-23T06:04:28.512Z,28.93
2023-01-23T06:07:27.481Z,26.47
2023-01-23T06:09:56.956Z,25.93
2023-01-23T06:12:23.597Z,26.93
2023-01-23T06:14:50.915Z,26.90
2023-01-23T06:17:17.543Z,26.83
2023-01-23T06:19:44.265Z,28.13
2023-01-23T06:22:11.217Z,26.23
2023-01-23T06:24:55.915Z,27.83
2023-01-23T06:27:22.709Z,28.10
2023-01-23T06:29:50.842Z,27.60
2023-01-23T06:32:17.576Z,28.00
2023-01-23T06:34:46.305Z,28.13
2023-01-23T06:37:12.918Z,28.03
2023-01-23T06:39:42.660Z,29.27
2023-01-23T06:42:24.720Z,30.90
2023-01-23T06:44:52.955Z,30.47
2023-01-23T06:47:22.477Z,29.97
2023-01-23T06:49:55.147Z,30.60
2023-01-23T06:52:23.147Z,31.53
2023-01-23T06:54:50.125Z,32.30
2023-01-23T06:57:16.872Z,32.73
2023-01-23T06:59:45.494Z,33.57
2023-01-23T07:02:14.807Z,32.07
2023-01-23T07:04:51.345Z,33.83
2023-01-23T07:07:18.308Z,32.90
2023-01-23T07:09:47.573Z,33.63
2023-01-23T07:12:18.611Z,35.00
2023-01-23T07:14:45.608Z,36.23
2023-01-23T07:17:16.790Z,36.30
2023-01-23T07:19:43.284Z,38.43
2023-01-23T07:22:16.332Z,39.47
2023-01-23T07:24:42.776Z,36.00
2023-01-23T07:27:09.190Z,34.93
2023-01-23T07:29:35.721Z,37.80
2023-01-23T07:32:02.290Z,42.73
2023-01-23T07:34:29.358Z,36.33
2023-01-23T07:36:55.767Z,35.23
2023-01-23T07:39:22.333Z,34.37
2023-01-23T07:41:48.759Z,34.07
2023-01-23T07:44:17.861Z,34.13
2023-01-23T07:46:44.343Z,31.30
2023-01-23T07:49:11.001Z,31.10
2023-01-23T07:51:38.296Z,30.47
2023-01-23T07:54:05.360Z,30.33
2023-01-23T07:56:32.277Z,26.77
2023-01-23T07:58:58.748Z,29.77
2023-01-23T08:01:25.313Z,33.33
2023-01-23T08:03:52.500Z,34.97
2023-01-23T08:06:19.174Z,31.93
2023-01-23T08:08:48.516Z,29.53
2023-01-23T08:11:15.280Z,33.40
2023-01-23T08:13:42.139Z,30.87
2023-01-23T08:16:09.725Z,29.90
2023-01-23T08:18:37.291Z,31.03
2023-01-23T08:21:03.997Z,29.77
2023-01-23T08:23:32.947Z,27.77
2023-01-23T08:26:03.087Z,29.83
2023-01-23T08:28:29.780Z,28.33
2023-01-23T08:31:00.050Z,29.20
2023-01-23T08:33:26.567Z,29.93
2023-01-23T08:35:54.850Z,28.33
2023-01-23T08:38:21.729Z,28.43
2023-01-23T08:40:50.331Z,30.93
2023-01-23T08:43:18.469Z,27.37
2023-01-23T08:45:48.843Z,27.93
2023-01-23T08:48:15.595Z,26.67
2023-01-23T08:50:42.359Z,31.03
2023-01-23T08:53:08.800Z,34.80
2023-01-23T08:55:37.660Z,29.80
2023-01-23T08:58:04.389Z,31.80
2023-01-23T09:00:32.266Z,27.93
2023-01-23T09:02:59.458Z,24.90
2023-01-23T09:05:26.793Z,28.80
2023-01-23T09:07:53.227Z,23.80
2023-01-23T09:10:20.146Z,25.53
2023-01-23T09:12:46.693Z,24.60
2023-01-23T09:15:13.213Z,25.17
2023-01-23T09:17:40.270Z,23.73
2023-01-23T09:20:08.566Z,24.90
2023-01-23T09:22:35.684Z,23.10
2023-01-23T09:25:02.320Z,22.57
2023-01-23T09:27:28.767Z,23.80
2023-01-23T09:29:55.211Z,23.50
2023-01-23T09:32:21.583Z,25.10
2023-01-23T09:34:48.717Z,22.33
2023-01-23T09:37:15.642Z,24.90
2023-01-23T09:39:42.717Z,23.73
2023-01-23T09:42:16.692Z,21.63
2023-01-23T09:44:48.194Z,25.53
2023-01-23T09:47:19.744Z,23.80
2023-01-23T09:49:52.354Z,23.50
2023-01-23T09:52:21.406Z,24.10
2023-01-23T09:54:50.231Z,25.47
2023-01-23T09:57:20.769Z,25.23
2023-01-23T10:00:00.698Z,23.73
2023-01-23T10:02:27.765Z,25.03
2023-01-23T10:04:57.348Z,26.47
2023-01-23T10:07:39.801Z,26.60
2023-01-23T10:10:29.715Z,25.07
2023-01-23T10:13:05.041Z,26.17
2023-01-23T10:15:53.808Z,22.27
2023-01-23T10:18:25.739Z,24.63
2023-01-23T10:21:04.196Z,23.67
2023-01-23T10:23:47.255Z,27.90
2023-01-23T10:26:18.153Z,27.67
2023-01-23T10:28:46.495Z,25.43
2023-01-23T10:31:28.431Z,23.47
2023-01-23T10:34:05.032Z,26.00
2023-01-23T10:36:48.045Z,25.17
2023-01-23T10:39:26.005Z,23.93
2023-01-23T10:42:01.455Z,24.90
2023-01-23T10:44:28.751Z,25.33
2023-01-23T10:47:00.135Z,26.10
2023-01-23T10:49:29.041Z,26.63
2023-01-23T10:51:56.177Z,26.87
2023-01-23T10:54:31.775Z,25.13
2023-01-23T10:57:01.914Z,25.43
2023-01-23T10:59:34.013Z,27.27
2023-01-23T11:02:05.452Z,27.17
2023-01-23T11:04:36.251Z,28.00
2023-01-23T11:07:07.704Z,30.20
2023-01-23T11:09:47.015Z,31.37
2023-01-23T11:12:17.518Z,26.83
2023-01-23T11:14:44.434Z,29.47
2023-01-23T11:17:20.517Z,31.90
2023-01-23T11:19:50.912Z,29.60
2023-01-23T11:22:29.341Z,31.10
2023-01-23T11:24:56.296Z,32.33
2023-01-23T11:27:27.168Z,29.43
2023-01-23T11:30:05.819Z,32.13
2023-01-23T11:32:37.885Z,32.40
2023-01-23T11:35:12.624Z,30.27
2023-01-23T11:37:40.591Z,29.53
2023-01-23T11:40:12.556Z,31.17
2023-01-23T11:42:40.955Z,31.13
2023-01-23T11:45:14.033Z,31.10
2023-01-23T11:48:00.082Z,31.07
2023-01-23T11:50:43.666Z,31.17
2023-01-23T11:53:36.764Z,32.23
2023-01-23T11:56:39.102Z,29.23
2023-01-23T11:59:30.790Z,27.63
2023-01-23T12:02:12.840Z,31.60
2023-01-23T12:05:02.100Z,29.23
2023-01-23T12:07:32.509Z,28.00
2023-01-23T12:10:08.890Z,28.47
2023-01-23T12:13:06.492Z,30.40
2023-01-23T12:15:43.610Z,30.90
2023-01-23T12:18:24.906Z,28.20
2023-01-23T12:21:00.555Z,30.00
2023-01-23T12:23:48.969Z,32.97
2023-01-23T12:26:19.062Z,29.50
2023-01-23T12:29:32.921Z,29.07
2023-01-23T12:32:15.508Z,29.73
2023-01-23T12:34:58.873Z,28.60
2023-01-23T12:37:39.111Z,31.37
2023-01-23T12:40:12.558Z,28.93
2023-01-23T12:42:48.162Z,28.27
2023-01-23T12:45:22.194Z,29.17
2023-01-23T12:47:56.744Z,29.23
2023-01-23T12:50:34.285Z,28.83
2023-01-23T12:53:06.548Z,26.57
2023-01-23T12:55:36.470Z,33.70
2023-01-23T12:58:09.476Z,27.63
2023-01-23T13:00:52.351Z,30.10
2023-01-23T13:03:47.193Z,29.13
2023-01-23T13:06:26.455Z,25.57
2023-01-23T13:09:08.892Z,24.67
2023-01-23T13:11:50.039Z,28.30
2023-01-23T13:14:22.162Z,29.07
2023-01-23T13:16:50.559Z,26.93
2023-01-23T13:19:42.151Z,29.67
2023-01-23T13:22:27.270Z,25.83
2023-01-23T13:25:11.774Z,28.20
2023-01-23T13:27:46.514Z,28.30
2023-01-23T13:30:42.088Z,32.87
2023-01-23T13:33:51.810Z,26.10
2023-01-23T13:36:33.616Z,29.20
2023-01-23T13:39:02.206Z,28.13
2023-01-23T13:41:29.538Z,27.10
2023-01-23T13:44:03.335Z,25.73
2023-01-23T14:24:22.150Z,23.70
2023-01-23T14:26:50.653Z,23.77
2023-01-23T14:29:21.815Z,20.83
2023-01-23T14:31:50.333Z,22.60
2023-01-23T14:34:19.137Z,25.13
2023-01-23T14:36:49.717Z,24.20
2023-01-23T14:39:19.594Z,23.83
2023-01-23T14:41:47.666Z,22.67
2023-01-23T14:44:19.987Z,23.07
2023-01-23T14:46:51.654Z,21.67
2023-01-23T14:49:25.939Z,22.00
2023-01-23T14:51:58.936Z,23.47
2023-01-23T14:54:29.598Z,22.70
2023-01-23T14:57:03.581Z,26.17
2023-01-23T14:59:33.460Z,23.50
2023-01-23T15:02:05.331Z,24.67
2023-01-23T15:04:36.661Z,22.13
2023-01-23T15:07:03.891Z,23.03
2023-01-23T15:09:33.749Z,21.80
2023-01-23T15:12:05.285Z,22.40
2023-01-23T15:14:36.082Z,23.97
2023-01-23T15:17:04.801Z,23.57
2023-01-23T15:19:34.460Z,23.63
2023-01-23T15:22:18.680Z,22.00
2023-01-23T15:24:45.682Z,26.07
2023-01-23T15:27:27.353Z,21.43
2023-01-23T15:30:27.014Z,25.50
2023-01-23T15:32:53.647Z,23.33
2023-01-23T15:35:20.485Z,24.57
2023-01-23T15:37:49.018Z,22.67
2023-01-23T15:40:18.497Z,24.23
2023-01-23T15:43:00.937Z,25.50
2023-01-23T15:45:27.485Z,23.43
2023-01-23T15:47:53.904Z,24.97
2023-01-23T15:50:20.574Z,23.93
2023-01-23T15:52:49.934Z,25.37
2023-01-23T15:55:16.878Z,27.40
2023-01-23T15:57:43.357Z,27.63
2023-01-23T16:00:14.597Z,26.50
2023-01-23T16:02:54.712Z,28.77
2023-01-23T16:05:24.442Z,28.90
2023-01-23T16:07:53.200Z,26.83
2023-01-23T16:10:21.998Z,29.17
2023-01-23T16:12:50.221Z,30.63
2023-01-23T16:15:18.218Z,29.97
2023-01-23T16:17:44.767Z,29.67
2023-01-23T16:20:14.206Z,34.20
2023-01-23T16:22:41.197Z,29.07
2023-01-23T16:25:17.428Z,30.90
2023-01-23T16:27:43.923Z,28.43
2023-01-23T16:30:16.854Z,31.27
2023-01-23T16:32:43.993Z,30.27
2023-01-23T16:35:11.462Z,32.53
2023-01-23T16:37:40.414Z,35.13
2023-01-23T16:40:16.182Z,34.03
2023-01-23T16:42:44.247Z,32.27
2023-01-23T16:45:15.088Z,30.37
2023-01-23T16:47:41.487Z,34.23
2023-01-23T16:50:11.150Z,32.13
2023-01-23T16:52:37.818Z,34.70
2023-01-23T16:55:15.597Z,36.10
2023-01-23T16:57:42.739Z,37.70
2023-01-23T17:00:14.252Z,35.93
2023-01-23T17:02:40.941Z,35.60
2023-01-23T17:05:08.525Z,36.87
2023-01-23T17:07:35.020Z,38.83
2023-01-23T17:10:01.810Z,38.00
2023-01-23T17:12:32.282Z,34.87
2023-01-23T17:14:59.439Z,36.17
2023-01-23T17:17:31.353Z,35.43
2023-01-23T17:20:00.308Z,35.70
2023-01-23T17:22:29.946Z,35.93
2023-01-23T17:24:56.602Z,35.87
2023-01-23T17:27:23.288Z,32.43
2023-01-23T17:29:49.813Z,34.60
2023-01-23T17:32:26.711Z,35.30
2023-01-23T17:34:54.031Z,34.70
2023-01-23T17:37:22.344Z,38.30
2023-01-23T17:39:48.922Z,50.50
2023-01-23T17:42:15.751Z,41.97
2023-01-23T17:44:42.700Z,33.57
2023-01-23T17:47:11.741Z,37.80
2023-01-23T17:49:39.516Z,33.43
2023-01-23T17:52:06.045Z,29.10
2023-01-23T17:54:32.724Z,32.50
2023-01-23T17:56:59.294Z,36.10
2023-01-23T17:59:26.036Z,32.07
2023-01-23T18:01:52.601Z,30.30
2023-01-23T18:04:21.390Z,29.33
2023-01-23T18:06:49.043Z,32.20
2023-01-23T18:09:15.763Z,32.40
2023-01-23T18:11:49.628Z,30.93
2023-01-23T18:14:40.785Z,29.73
2023-01-23T18:17:19.345Z,29.47
2023-01-23T18:19:46.406Z,31.87
2023-01-23T18:22:14.319Z,33.53
2023-01-23T18:24:41.367Z,31.30
2023-01-23T18:27:19.153Z,31.30
2023-01-23T18:30:03.028Z,29.63
2023-01-23T18:32:51.143Z,31.87
2023-01-23T18:35:30.148Z,30.97
2023-01-23T18:38:05.992Z,30.50
2023-01-23T18:40:40.605Z,28.30
2023-01-23T18:43:18.733Z,29.30
2023-01-23T18:45:45.949Z,29.20
2023-01-23T18:48:24.625Z,31.97
2023-01-23T18:51:05.842Z,31.27
2023-01-23T18:53:45.543Z,33.57
2023-01-23T18:56:24.348Z,30.63
2023-01-23T18:59:11.106Z,31.53
2023-01-23T19:01:49.669Z,32.87
2023-01-23T19:04:19.577Z,32.53
2023-01-23T19:06:47.209Z,33.47
2023-01-23T19:09:22.504Z,33.23
2023-01-23T19:12:00.218Z,34.17
2023-01-23T19:14:45.596Z,36.87
2023-01-23T19:17:26.400Z,35.10
2023-01-23T19:20:00.443Z,38.03
2023-01-23T19:22:45.354Z,40.87
2023-01-23T19:25:16.712Z,32.23
2023-01-23T19:27:51.591Z,32.03
2023-01-23T19:30:21.351Z,29.43
2023-01-23T19:32:48.316Z,35.30
2023-01-23T19:35:15.557Z,37.63
2023-01-23T19:37:43.480Z,40.20
2023-01-23T19:40:15.621Z,40.07
2023-01-23T19:42:54.170Z,37.33
2023-01-23T19:45:25.726Z,36.97
2023-01-23T19:47:52.660Z,38.97
2023-01-23T19:50:21.016Z,39.03
2023-01-23T19:52:49.158Z,41.93
2023-01-23T19:55:23.770Z,40.63
2023-01-23T19:57:51.555Z,39.00
2023-01-23T20:00:19.105Z,41.20
2023-01-23T20:02:45.938Z,44.53
2023-01-23T20:05:12.664Z,40.73
2023-01-23T20:07:39.191Z,47.27
2023-01-23T20:10:07.692Z,42.30
2023-01-23T20:12:40.813Z,41.30
2023-01-23T20:15:10.811Z,41.10
2023-01-23T20:17:37.334Z,43.37
2023-01-23T20:20:09.841Z,42.37
2023-01-23T20:22:37.094Z,45.57
2023-01-23T20:25:04.501Z,47.67
2023-01-23T20:27:31.039Z,50.83
2023-01-23T20:29:57.664Z,47.50
2023-01-23T20:32:25.424Z,48.03
2023-01-23T20:34:54.351Z,50.30
2023-01-23T20:37:20.931Z,47.77
2023-01-23T20:39:47.567Z,44.13
2023-01-23T20:42:17.631Z,42.90
2023-01-23T20:44:44.280Z,48.30
2023-01-23T20:47:10.858Z,49.50
2023-01-23T20:49:39.388Z,47.57
2023-01-23T20:52:24.972Z,41.33
2023-01-23T20:54:51.909Z,42.23
2023-01-23T20:57:20.596Z,40.10
2023-01-23T20:59:47.127Z,38.20
2023-01-23T21:02:22.521Z,37.90
2023-01-23T21:04:50.833Z,44.50
2023-01-23T21:07:17.789Z,39.97
2023-01-23T21:09:45.581Z,37.87
2023-01-23T21:12:12.535Z,34.93
2023-01-23T21:14:39.366Z,40.77
2023-01-23T21:17:07.832Z,42.10
2023-01-23T21:19:36.499Z,42.47
2023-01-23T21:22:05.258Z,42.00
2023-01-23T21:24:36.845Z,43.90
2023-01-23T21:27:05.197Z,44.20
2023-01-23T21:29:32.960Z,41.67
2023-01-23T21:32:00.133Z,47.53
2023-01-23T21:34:26.772Z,44.20
2023-01-23T21:36:53.480Z,43.60
2023-01-23T21:39:20.740Z,41.97
2023-01-23T21:41:47.518Z,40.67
2023-01-23T21:44:14.115Z,41.93
2023-01-23T21:46:41.001Z,40.83
2023-01-23T21:49:07.800Z,42.20
2023-01-23T21:51:34.374Z,42.07
2023-01-23T21:54:01.120Z,40.80
2023-01-23T21:56:28.334Z,45.43
2023-01-23T21:58:55.169Z,41.03
2023-01-23T22:01:32.356Z,40.90
2023-01-23T22:03:59.896Z,39.10
2023-01-23T22:06:26.464Z,40.90
2023-01-23T22:08:53.422Z,40.10
2023-01-23T22:11:22.690Z,39.80
2023-01-23T22:13:50.393Z,40.20
2023-01-23T22:16:17.197Z,37.50
2023-01-23T22:18:43.850Z,40.23
2023-01-23T22:21:10.911Z,38.70
2023-01-23T22:23:37.462Z,42.10
2023-01-23T22:26:07.815Z,41.60
2023-01-23T22:28:34.490Z,45.57
2023-01-23T22:31:06.191Z,43.43
2023-01-23T22:33:40.147Z,41.33
2023-01-23T22:36:11.115Z,41.17
2023-01-23T22:38:38.048Z,41.40
2023-01-23T22:41:06.151Z,43.73
2023-01-23T22:43:33.195Z,40.80
2023-01-23T22:46:07.623Z,38.90
2023-01-23T22:48:34.619Z,39.50
2023-01-23T22:51:01.691Z,38.33
2023-01-23T22:53:28.314Z,36.97
2023-01-23T22:55:54.708Z,40.50
2023-01-23T22:58:21.281Z,37.50
2023-01-23T23:00:51.196Z,38.77
2023-01-23T23:03:19.043Z,39.77
2023-01-23T23:05:45.883Z,40.57
2023-01-23T23:08:12.294Z,37.90
2023-01-23T23:10:38.836Z,37.40
2023-01-23T23:13:07.405Z,35.80
2023-01-23T23:15:35.673Z,32.83
2023-01-23T23:18:02.249Z,34.17
2023-01-23T23:20:31.128Z,34.73
2023-01-23T23:22:58.922Z,33.33
2023-01-23T23:25:25.726Z,31.97
2023-01-23T23:27:52.173Z,35.67
2023-01-23T23:30:18.948Z,32.70
2023-01-23T23:32:45.773Z,31.87
2023-01-23T23:35:12.259Z,28.60
2023-01-23T23:37:42.217Z,28.73
2023-01-23T23:40:12.032Z,29.43
2023-01-23T23:42:41.696Z,30.83
2023-01-23T23:45:09.526Z,27.97
2023-01-23T23:47:35.950Z,29.40
2023-01-23T23:50:04.043Z,29.13
2023-01-23T23:52:30.661Z,28.20
2023-01-23T23:54:58.135Z,30.87
2023-01-23T23:57:24.893Z,30.93
2023-01-23T23:59:51.960Z,30.23
